sensor_id;sensor_type;location;lat;lon;timestamp;P1;durP1;ratioP1;P2;durP2;ratioP2
42332;SDS011;27984;51.476;5.702;2023-05-16T00:01:32;8.13;;;2.22;;
42332;SDS011;27984;51.476;5.702;2023-05-16T00:03:59;7.80;;;2.00;;
42332;SDS011;27984;51.476;5.702;2023-05-16T00:06:25;10.13;;;2.50;;
42332;SDS011;27984;51.476;5.702;2023-05-16T00:08:50;9.90;;;2.22;;
42332;SDS011;27984;51.476;5.702;2023-05-16T00:11:16;11.48;;;2.47;;
42332;SDS011;27984;51.476;5.702;2023-05-16T00:13:42;12.10;;;2.65;;
42332;SDS011;27984;51.476;5.702;2023-05-16T00:16:08;13.40;;;3.10;;
42332;SDS011;27984;51.476;5.702;2023-05-16T00:18:34;11.82;;;2.40;;
42332;SDS011;27984;51.476;5.702;2023-05-16T00:21:03;10.10;;;2.42;;
42332;SDS011;27984;51.476;5.702;2023-05-16T00:23:29;14.77;;;2.70;;
42332;SDS011;27984;51.476;5.702;2023-05-16T00:25:55;11.93;;;2.72;;
42332;SDS011;27984;51.476;5.702;2023-05-16T00:28:20;7.63;;;2.40;;
42332;SDS011;27984;51.476;5.702;2023-05-16T00:30:46;12.52;;;2.63;;
42332;SDS011;27984;51.476;5.702;2023-05-16T00:33:12;12.52;;;2.85;;
42332;SDS011;27984;51.476;5.702;2023-05-16T00:35:37;18.38;;;2.47;;
42332;SDS011;27984;51.476;5.702;2023-05-16T00:38:03;13.63;;;3.00;;
42332;SDS011;27984;51.476;5.702;2023-05-16T00:40:28;11.10;;;2.65;;
42332;SDS011;27984;51.476;5.702;2023-05-16T00:42:54;13.88;;;2.50;;
42332;SDS011;27984;51.476;5.702;2023-05-16T00:45:20;13.50;;;2.45;;
42332;SDS011;27984;51.476;5.702;2023-05-16T00:47:45;14.00;;;2.50;;
42332;SDS011;27984;51.476;5.702;2023-05-16T00:50:11;11.10;;;2.60;;
42332;SDS011;27984;51.476;5.702;2023-05-16T00:52:37;15.88;;;2.58;;
42332;SDS011;27984;51.476;5.702;2023-05-16T00:55:02;15.43;;;3.45;;
42332;SDS011;27984;51.476;5.702;2023-05-16T00:57:28;12.80;;;2.65;;
42332;SDS011;27984;51.476;5.702;2023-05-16T00:59:54;13.98;;;2.90;;
42332;SDS011;27984;51.476;5.702;2023-05-16T01:02:20;13.05;;;2.85;;
42332;SDS011;27984;51.476;5.702;2023-05-16T01:04:46;10.45;;;2.83;;
42332;SDS011;27984;51.476;5.702;2023-05-16T01:07:12;16.35;;;2.80;;
42332;SDS011;27984;51.476;5.702;2023-05-16T01:09:38;16.90;;;3.40;;
42332;SDS011;27984;51.476;5.702;2023-05-16T01:12:11;18.58;;;3.17;;
42332;SDS011;27984;51.476;5.702;2023-05-16T01:14:53;16.98;;;2.88;;
42332;SDS011;27984;51.476;5.702;2023-05-16T01:17:31;17.30;;;3.65;;
42332;SDS011;27984;51.476;5.702;2023-05-16T01:20:24;17.48;;;3.25;;
42332;SDS011;27984;51.476;5.702;2023-05-16T01:28:43;14.27;;;2.97;;
42332;SDS011;27984;51.476;5.702;2023-05-16T01:31:10;18.50;;;2.53;;
42332;SDS011;27984;51.476;5.702;2023-05-16T01:33:35;16.05;;;2.70;;
42332;SDS011;27984;51.476;5.702;2023-05-16T01:38:38;17.27;;;3.03;;
42332;SDS011;27984;51.476;5.702;2023-05-16T01:47:33;15.38;;;2.60;;
42332;SDS011;27984;51.476;5.702;2023-05-16T01:52:45;19.77;;;3.03;;
42332;SDS011;27984;51.476;5.702;2023-05-16T01:55:23;17.98;;;2.38;;
42332;SDS011;27984;51.476;5.702;2023-05-16T01:58:11;13.65;;;2.50;;
42332;SDS011;27984;51.476;5.702;2023-05-16T02:00:39;16.85;;;2.58;;
42332;SDS011;27984;51.476;5.702;2023-05-16T02:03:05;12.63;;;3.13;;
42332;SDS011;27984;51.476;5.702;2023-05-16T02:05:31;16.52;;;2.25;;
42332;SDS011;27984;51.476;5.702;2023-05-16T02:07:57;20.70;;;2.97;;
42332;SDS011;27984;51.476;5.702;2023-05-16T02:10:23;18.88;;;2.55;;
42332;SDS011;27984;51.476;5.702;2023-05-16T02:12:49;16.17;;;2.60;;
42332;SDS011;27984;51.476;5.702;2023-05-16T02:15:16;17.05;;;2.85;;
42332;SDS011;27984;51.476;5.702;2023-05-16T02:17:42;16.75;;;2.28;;
42332;SDS011;27984;51.476;5.702;2023-05-16T02:20:08;22.08;;;3.65;;
42332;SDS011;27984;51.476;5.702;2023-05-16T02:22:35;12.85;;;2.40;;
42332;SDS011;27984;51.476;5.702;2023-05-16T02:25:01;13.38;;;2.28;;
42332;SDS011;27984;51.476;5.702;2023-05-16T02:27:31;15.90;;;2.33;;
42332;SDS011;27984;51.476;5.702;2023-05-16T02:29:56;14.60;;;2.97;;
42332;SDS011;27984;51.476;5.702;2023-05-16T02:32:22;13.02;;;2.88;;
42332;SDS011;27984;51.476;5.702;2023-05-16T02:34:48;11.85;;;2.35;;
42332;SDS011;27984;51.476;5.702;2023-05-16T02:37:13;15.75;;;2.58;;
42332;SDS011;27984;51.476;5.702;2023-05-16T02:39:39;13.40;;;2.55;;
42332;SDS011;27984;51.476;5.702;2023-05-16T02:42:05;16.95;;;2.38;;
42332;SDS011;27984;51.476;5.702;2023-05-16T02:44:31;12.77;;;2.35;;
42332;SDS011;27984;51.476;5.702;2023-05-16T02:46:57;19.88;;;2.65;;
42332;SDS011;27984;51.476;5.702;2023-05-16T02:49:22;16.77;;;2.22;;
42332;SDS011;27984;51.476;5.702;2023-05-16T02:51:48;19.20;;;2.42;;
42332;SDS011;27984;51.476;5.702;2023-05-16T02:54:13;20.70;;;3.13;;
42332;SDS011;27984;51.476;5.702;2023-05-16T02:56:39;10.85;;;2.22;;
42332;SDS011;27984;51.476;5.702;2023-05-16T02:59:04;18.20;;;2.30;;
42332;SDS011;27984;51.476;5.702;2023-05-16T03:01:30;11.68;;;2.10;;
42332;SDS011;27984;51.476;5.702;2023-05-16T03:03:55;13.30;;;2.83;;
42332;SDS011;27984;51.476;5.702;2023-05-16T03:06:21;19.63;;;2.60;;
42332;SDS011;27984;51.476;5.702;2023-05-16T03:08:47;15.15;;;2.40;;
42332;SDS011;27984;51.476;5.702;2023-05-16T03:11:13;15.40;;;2.15;;
42332;SDS011;27984;51.476;5.702;2023-05-16T03:13:40;15.15;;;2.70;;
42332;SDS011;27984;51.476;5.702;2023-05-16T03:16:06;11.73;;;2.00;;
42332;SDS011;27984;51.476;5.702;2023-05-16T03:18:31;12.98;;;2.35;;
42332;SDS011;27984;51.476;5.702;2023-05-16T03:20:57;16.35;;;2.65;;
42332;SDS011;27984;51.476;5.702;2023-05-16T03:23:24;15.20;;;2.38;;
42332;SDS011;27984;51.476;5.702;2023-05-16T03:25:51;11.35;;;1.90;;
42332;SDS011;27984;51.476;5.702;2023-05-16T03:28:16;14.60;;;2.30;;
42332;SDS011;27984;51.476;5.702;2023-05-16T03:30:42;12.30;;;2.13;;
42332;SDS011;27984;51.476;5.702;2023-05-16T03:33:08;13.32;;;2.10;;
42332;SDS011;27984;51.476;5.702;2023-05-16T03:35:33;14.63;;;2.60;;
42332;SDS011;27984;51.476;5.702;2023-05-16T03:38:00;14.30;;;2.65;;
42332;SDS011;27984;51.476;5.702;2023-05-16T03:40:26;11.43;;;2.63;;
42332;SDS011;27984;51.476;5.702;2023-05-16T03:42:52;9.95;;;1.92;;
42332;SDS011;27984;51.476;5.702;2023-05-16T03:45:17;15.20;;;2.33;;
42332;SDS011;27984;51.476;5.702;2023-05-16T03:47:43;14.88;;;2.47;;
42332;SDS011;27984;51.476;5.702;2023-05-16T03:50:09;10.13;;;2.08;;
42332;SDS011;27984;51.476;5.702;2023-05-16T03:52:34;10.48;;;2.30;;
42332;SDS011;27984;51.476;5.702;2023-05-16T03:55:00;16.95;;;2.70;;
42332;SDS011;27984;51.476;5.702;2023-05-16T03:57:29;9.38;;;2.03;;
42332;SDS011;27984;51.476;5.702;2023-05-16T03:59:56;19.48;;;3.17;;
42332;SDS011;27984;51.476;5.702;2023-05-16T04:02:21;19.30;;;2.60;;
42332;SDS011;27984;51.476;5.702;2023-05-16T04:04:47;14.75;;;2.63;;
42332;SDS011;27984;51.476;5.702;2023-05-16T04:07:12;16.50;;;2.80;;
42332;SDS011;27984;51.476;5.702;2023-05-16T04:09:38;14.00;;;2.53;;
42332;SDS011;27984;51.476;5.702;2023-05-16T04:12:03;14.13;;;2.42;;
42332;SDS011;27984;51.476;5.702;2023-05-16T04:14:29;20.85;;;2.50;;
42332;SDS011;27984;51.476;5.702;2023-05-16T04:16:55;13.05;;;2.22;;
42332;SDS011;27984;51.476;5.702;2023-05-16T04:19:21;16.77;;;2.92;;
42332;SDS011;27984;51.476;5.702;2023-05-16T04:21:47;19.35;;;2.75;;
42332;SDS011;27984;51.476;5.702;2023-05-16T04:24:12;19.20;;;2.97;;
42332;SDS011;27984;51.476;5.702;2023-05-16T04:26:38;16.75;;;2.60;;
42332;SDS011;27984;51.476;5.702;2023-05-16T04:29:03;16.85;;;2.88;;
42332;SDS011;27984;51.476;5.702;2023-05-16T04:31:30;12.63;;;2.70;;
42332;SDS011;27984;51.476;5.702;2023-05-16T04:33:55;17.70;;;2.58;;
42332;SDS011;27984;51.476;5.702;2023-05-16T04:36:22;14.85;;;2.70;;
42332;SDS011;27984;51.476;5.702;2023-05-16T04:38:47;16.17;;;2.50;;
42332;SDS011;27984;51.476;5.702;2023-05-16T04:41:13;22.75;;;2.83;;
42332;SDS011;27984;51.476;5.702;2023-05-16T04:43:39;14.70;;;2.40;;
42332;SDS011;27984;51.476;5.702;2023-05-16T04:46:05;14.02;;;2.47;;
42332;SDS011;27984;51.476;5.702;2023-05-16T04:48:32;16.05;;;2.60;;
42332;SDS011;27984;51.476;5.702;2023-05-16T04:50:58;15.57;;;2.78;;
42332;SDS011;27984;51.476;5.702;2023-05-16T04:53:23;16.08;;;2.55;;
42332;SDS011;27984;51.476;5.702;2023-05-16T04:55:49;14.05;;;2.50;;
42332;SDS011;27984;51.476;5.702;2023-05-16T04:58:14;18.05;;;2.88;;
42332;SDS011;27984;51.476;5.702;2023-05-16T05:00:40;14.68;;;3.33;;
42332;SDS011;27984;51.476;5.702;2023-05-16T05:03:06;15.13;;;2.80;;
42332;SDS011;27984;51.476;5.702;2023-05-16T05:05:31;14.50;;;2.65;;
42332;SDS011;27984;51.476;5.702;2023-05-16T05:07:57;15.75;;;3.20;;
42332;SDS011;27984;51.476;5.702;2023-05-16T05:10:24;18.10;;;2.80;;
42332;SDS011;27984;51.476;5.702;2023-05-16T05:12:51;12.57;;;2.65;;
42332;SDS011;27984;51.476;5.702;2023-05-16T05:15:17;14.32;;;2.70;;
42332;SDS011;27984;51.476;5.702;2023-05-16T05:17:43;12.80;;;2.40;;
42332;SDS011;27984;51.476;5.702;2023-05-16T05:20:09;12.07;;;2.92;;
42332;SDS011;27984;51.476;5.702;2023-05-16T05:22:35;15.52;;;2.38;;
42332;SDS011;27984;51.476;5.702;2023-05-16T05:25:01;14.05;;;2.60;;
42332;SDS011;27984;51.476;5.702;2023-05-16T05:27:26;12.23;;;2.53;;
42332;SDS011;27984;51.476;5.702;2023-05-16T05:29:52;14.57;;;3.08;;
42332;SDS011;27984;51.476;5.702;2023-05-16T05:32:18;16.50;;;2.50;;
42332;SDS011;27984;51.476;5.702;2023-05-16T05:34:43;13.88;;;2.53;;
42332;SDS011;27984;51.476;5.702;2023-05-16T05:37:09;10.60;;;2.08;;
42332;SDS011;27984;51.476;5.702;2023-05-16T05:39:34;11.93;;;2.45;;
42332;SDS011;27984;51.476;5.702;2023-05-16T05:42:00;7.15;;;1.85;;
42332;SDS011;27984;51.476;5.702;2023-05-16T05:44:27;13.00;;;2.60;;
42332;SDS011;27984;51.476;5.702;2023-05-16T05:46:53;11.20;;;2.17;;
42332;SDS011;27984;51.476;5.702;2023-05-16T05:49:21;12.52;;;2.17;;
42332;SDS011;27984;51.476;5.702;2023-05-16T05:51:47;12.02;;;2.42;;
42332;SDS011;27984;51.476;5.702;2023-05-16T05:54:15;11.32;;;1.98;;
42332;SDS011;27984;51.476;5.702;2023-05-16T05:56:42;12.57;;;2.20;;
42332;SDS011;27984;51.476;5.702;2023-05-16T05:59:07;17.35;;;2.47;;
42332;SDS011;27984;51.476;5.702;2023-05-16T06:01:33;10.63;;;2.20;;
42332;SDS011;27984;51.476;5.702;2023-05-16T06:03:58;18.25;;;2.70;;
42332;SDS011;27984;51.476;5.702;2023-05-16T06:06:24;11.95;;;1.83;;
42332;SDS011;27984;51.476;5.702;2023-05-16T06:08:50;12.10;;;2.40;;
42332;SDS011;27984;51.476;5.702;2023-05-16T06:11:15;8.20;;;1.70;;
42332;SDS011;27984;51.476;5.702;2023-05-16T06:13:41;14.45;;;2.80;;
42332;SDS011;27984;51.476;5.702;2023-05-16T06:16:06;12.20;;;2.20;;
42332;SDS011;27984;51.476;5.702;2023-05-16T06:18:32;11.85;;;2.35;;
42332;SDS011;27984;51.476;5.702;2023-05-16T06:20:57;11.98;;;2.08;;
42332;SDS011;27984;51.476;5.702;2023-05-16T06:23:23;14.15;;;2.00;;
42332;SDS011;27984;51.476;5.702;2023-05-16T06:25:49;12.98;;;2.03;;
42332;SDS011;27984;51.476;5.702;2023-05-16T06:28:14;10.48;;;2.30;;
42332;SDS011;27984;51.476;5.702;2023-05-16T06:30:40;10.48;;;2.20;;
42332;SDS011;27984;51.476;5.702;2023-05-16T06:33:05;10.02;;;2.53;;
42332;SDS011;27984;51.476;5.702;2023-05-16T06:35:31;13.38;;;1.90;;
42332;SDS011;27984;51.476;5.702;2023-05-16T06:37:56;12.48;;;2.10;;
42332;SDS011;27984;51.476;5.702;2023-05-16T06:40:22;11.48;;;1.77;;
42332;SDS011;27984;51.476;5.702;2023-05-16T06:42:48;11.65;;;2.00;;
42332;SDS011;27984;51.476;5.702;2023-05-16T06:45:14;12.73;;;1.70;;
42332;SDS011;27984;51.476;5.702;2023-05-16T06:47:40;7.97;;;1.45;;
42332;SDS011;27984;51.476;5.702;2023-05-16T06:50:06;8.88;;;1.65;;
42332;SDS011;27984;51.476;5.702;2023-05-16T06:52:32;9.68;;;1.83;;
42332;SDS011;27984;51.476;5.702;2023-05-16T06:54:57;9.27;;;1.95;;
42332;SDS011;27984;51.476;5.702;2023-05-16T06:57:23;10.02;;;1.45;;
42332;SDS011;27984;51.476;5.702;2023-05-16T06:59:48;9.27;;;1.50;;
42332;SDS011;27984;51.476;5.702;2023-05-16T07:02:14;10.60;;;2.08;;
42332;SDS011;27984;51.476;5.702;2023-05-16T07:04:39;8.10;;;1.92;;
42332;SDS011;27984;51.476;5.702;2023-05-16T07:07:05;7.60;;;1.85;;
42332;SDS011;27984;51.476;5.702;2023-05-16T07:09:33;8.05;;;1.75;;
42332;SDS011;27984;51.476;5.702;2023-05-16T07:11:58;11.15;;;1.60;;
42332;SDS011;27984;51.476;5.702;2023-05-16T07:14:24;9.02;;;1.70;;
42332;SDS011;27984;51.476;5.702;2023-05-16T07:16:49;10.18;;;1.90;;
42332;SDS011;27984;51.476;5.702;2023-05-16T07:19:15;12.43;;;2.00;;
42332;SDS011;27984;51.476;5.702;2023-05-16T07:21:41;12.30;;;1.65;;
42332;SDS011;27984;51.476;5.702;2023-05-16T07:24:06;13.73;;;1.55;;
42332;SDS011;27984;51.476;5.702;2023-05-16T07:26:32;14.27;;;1.92;;
42332;SDS011;27984;51.476;5.702;2023-05-16T07:28:57;7.95;;;1.48;;
42332;SDS011;27984;51.476;5.702;2023-05-16T07:31:23;6.05;;;1.33;;
42332;SDS011;27984;51.476;5.702;2023-05-16T07:33:48;7.32;;;1.63;;
42332;SDS011;27984;51.476;5.702;2023-05-16T07:36:14;7.22;;;1.30;;
42332;SDS011;27984;51.476;5.702;2023-05-16T07:38:40;7.88;;;1.40;;
42332;SDS011;27984;51.476;5.702;2023-05-16T07:41:06;10.40;;;1.58;;
42332;SDS011;27984;51.476;5.702;2023-05-16T07:43:31;6.65;;;1.33;;
42332;SDS011;27984;51.476;5.702;2023-05-16T07:45:59;8.80;;;1.38;;
42332;SDS011;27984;51.476;5.702;2023-05-16T07:48:26;7.20;;;1.65;;
42332;SDS011;27984;51.476;5.702;2023-05-16T07:50:51;10.88;;;1.50;;
42332;SDS011;27984;51.476;5.702;2023-05-16T07:53:17;5.22;;;1.30;;
42332;SDS011;27984;51.476;5.702;2023-05-16T07:55:42;6.47;;;1.50;;
42332;SDS011;27984;51.476;5.702;2023-05-16T07:58:08;7.10;;;1.40;;
42332;SDS011;27984;51.476;5.702;2023-05-16T08:00:34;7.70;;;1.33;;
42332;SDS011;27984;51.476;5.702;2023-05-16T08:02:59;4.35;;;1.30;;
42332;SDS011;27984;51.476;5.702;2023-05-16T08:05:25;6.57;;;1.15;;
42332;SDS011;27984;51.476;5.702;2023-05-16T08:07:50;5.90;;;1.08;;
42332;SDS011;27984;51.476;5.702;2023-05-16T08:10:16;5.95;;;1.48;;
42332;SDS011;27984;51.476;5.702;2023-05-16T08:12:41;7.00;;;1.45;;
42332;SDS011;27984;51.476;5.702;2023-05-16T08:15:07;4.15;;;1.08;;
42332;SDS011;27984;51.476;5.702;2023-05-16T08:17:33;5.05;;;1.50;;
42332;SDS011;27984;51.476;5.702;2023-05-16T08:19:59;6.03;;;1.30;;
42332;SDS011;27984;51.476;5.702;2023-05-16T08:22:25;7.05;;;1.20;;
42332;SDS011;27984;51.476;5.702;2023-05-16T08:24:51;6.43;;;1.13;;
42332;SDS011;27984;51.476;5.702;2023-05-16T08:27:17;4.85;;;1.27;;
42332;SDS011;27984;51.476;5.702;2023-05-16T08:29:42;4.93;;;1.00;;
42332;SDS011;27984;51.476;5.702;2023-05-16T08:32:08;7.95;;;1.40;;
42332;SDS011;27984;51.476;5.702;2023-05-16T08:34:35;4.95;;;1.33;;
42332;SDS011;27984;51.476;5.702;2023-05-16T08:37:01;4.70;;;1.20;;
42332;SDS011;27984;51.476;5.702;2023-05-16T08:46:10;4.80;;;1.10;;
42332;SDS011;27984;51.476;5.702;2023-05-16T08:48:36;4.72;;;1.25;;
42332;SDS011;27984;51.476;5.702;2023-05-16T08:51:05;9.75;;;1.30;;
42332;SDS011;27984;51.476;5.702;2023-05-16T08:53:35;7.25;;;1.30;;
42332;SDS011;27984;51.476;5.702;2023-05-16T08:56:08;4.60;;;1.23;;
42332;SDS011;27984;51.476;5.702;2023-05-16T08:58:36;6.25;;;1.50;;
42332;SDS011;27984;51.476;5.702;2023-05-16T09:01:03;8.27;;;1.30;;
42332;SDS011;27984;51.476;5.702;2023-05-16T09:03:33;7.90;;;1.60;;
42332;SDS011;27984;51.476;5.702;2023-05-16T09:06:00;6.32;;;1.45;;
42332;SDS011;27984;51.476;5.702;2023-05-16T09:08:26;4.55;;;1.13;;
42332;SDS011;27984;51.476;5.702;2023-05-16T09:10:52;7.30;;;1.10;;
42332;SDS011;27984;51.476;5.702;2023-05-16T09:13:17;7.40;;;1.50;;
42332;SDS011;27984;51.476;5.702;2023-05-16T09:15:43;5.03;;;1.15;;
42332;SDS011;27984;51.476;5.702;2023-05-16T09:18:11;5.07;;;1.05;;
42332;SDS011;27984;51.476;5.702;2023-05-16T09:20:42;8.27;;;1.17;;
42332;SDS011;27984;51.476;5.702;2023-05-16T09:23:10;6.07;;;1.23;;
42332;SDS011;27984;51.476;5.702;2023-05-16T09:25:36;6.60;;;1.08;;
42332;SDS011;27984;51.476;5.702;2023-05-16T09:28:04;6.75;;;1.17;;
42332;SDS011;27984;51.476;5.702;2023-05-16T09:30:30;6.80;;;1.10;;
42332;SDS011;27984;51.476;5.702;2023-05-16T09:32:57;7.72;;;1.30;;
42332;SDS011;27984;51.476;5.702;2023-05-16T09:35:23;7.90;;;1.30;;
42332;SDS011;27984;51.476;5.702;2023-05-16T09:37:49;6.28;;;1.23;;
42332;SDS011;27984;51.476;5.702;2023-05-16T09:40:21;4.07;;;1.15;;
42332;SDS011;27984;51.476;5.702;2023-05-16T09:42:52;5.30;;;1.23;;
42332;SDS011;27984;51.476;5.702;2023-05-16T09:45:29;6.82;;;1.20;;
42332;SDS011;27984;51.476;5.702;2023-05-16T09:50:34;4.97;;;1.08;;
42332;SDS011;27984;51.476;5.702;2023-05-16T09:53:01;3.10;;;0.93;;
42332;SDS011;27984;51.476;5.702;2023-05-16T09:55:27;3.40;;;1.00;;
42332;SDS011;27984;51.476;5.702;2023-05-16T09:57:53;6.80;;;1.20;;
42332;SDS011;27984;51.476;5.702;2023-05-16T10:00:19;3.83;;;0.90;;
42332;SDS011;27984;51.476;5.702;2023-05-16T10:02:45;6.82;;;1.00;;
42332;SDS011;27984;51.476;5.702;2023-05-16T10:05:11;6.35;;;1.00;;
42332;SDS011;27984;51.476;5.702;2023-05-16T10:07:37;6.60;;;1.13;;
42332;SDS011;27984;51.476;5.702;2023-05-16T10:10:07;5.85;;;1.10;;
42332;SDS011;27984;51.476;5.702;2023-05-16T10:12:35;7.78;;;1.05;;
42332;SDS011;27984;51.476;5.702;2023-05-16T10:15:03;4.53;;;1.10;;
42332;SDS011;27984;51.476;5.702;2023-05-16T10:17:31;7.68;;;1.20;;
42332;SDS011;27984;51.476;5.702;2023-05-16T10:20:01;6.60;;;0.85;;
42332;SDS011;27984;51.476;5.702;2023-05-16T10:22:32;4.72;;;1.00;;
42332;SDS011;27984;51.476;5.702;2023-05-16T10:25:03;6.13;;;1.20;;
42332;SDS011;27984;51.476;5.702;2023-05-16T10:27:55;5.87;;;1.07;;
42332;SDS011;27984;51.476;5.702;2023-05-16T10:30:21;11.13;;;1.20;;
42332;SDS011;27984;51.476;5.702;2023-05-16T10:32:47;5.32;;;1.17;;
42332;SDS011;27984;51.476;5.702;2023-05-16T10:35:15;5.53;;;1.10;;
42332;SDS011;27984;51.476;5.702;2023-05-16T10:37:41;2.45;;;0.70;;
42332;SDS011;27984;51.476;5.702;2023-05-16T10:40:07;5.45;;;0.80;;
42332;SDS011;27984;51.476;5.702;2023-05-16T10:42:34;3.78;;;1.00;;
42332;SDS011;27984;51.476;5.702;2023-05-16T10:50:32;1.98;;;0.70;;
42332;SDS011;27984;51.476;5.702;2023-05-16T10:56:05;4.22;;;1.08;;
42332;SDS011;27984;51.476;5.702;2023-05-16T11:01:13;3.63;;;0.80;;
42332;SDS011;27984;51.476;5.702;2023-05-16T11:06:25;7.80;;;0.98;;
42332;SDS011;27984;51.476;5.702;2023-05-16T11:17:00;4.45;;;0.70;;
42332;SDS011;27984;51.476;5.702;2023-05-16T11:19:31;4.18;;;0.88;;
42332;SDS011;27984;51.476;5.702;2023-05-16T11:27:35;4.55;;;1.00;;
42332;SDS011;27984;51.476;5.702;2023-05-16T11:30:13;3.50;;;0.95;;
42332;SDS011;27984;51.476;5.702;2023-05-16T11:32:42;6.10;;;0.95;;
42332;SDS011;27984;51.476;5.702;2023-05-16T11:35:10;6.85;;;0.95;;
42332;SDS011;27984;51.476;5.702;2023-05-16T11:37:37;3.55;;;0.80;;
42332;SDS011;27984;51.476;5.702;2023-05-16T11:40:06;5.30;;;1.00;;
42332;SDS011;27984;51.476;5.702;2023-05-16T11:42:35;5.72;;;1.17;;
42332;SDS011;27984;51.476;5.702;2023-05-16T11:45:07;4.20;;;1.02;;
42332;SDS011;27984;51.476;5.702;2023-05-16T11:47:37;3.75;;;0.80;;
42332;SDS011;27984;51.476;5.702;2023-05-16T11:50:11;4.15;;;0.90;;
42332;SDS011;27984;51.476;5.702;2023-05-16T11:52:42;5.15;;;1.10;;
42332;SDS011;27984;51.476;5.702;2023-05-16T11:55:10;6.35;;;0.98;;
42332;SDS011;27984;51.476;5.702;2023-05-16T11:57:38;3.20;;;0.82;;
42332;SDS011;27984;51.476;5.702;2023-05-16T12:00:18;3.17;;;0.95;;
42332;SDS011;27984;51.476;5.702;2023-05-16T12:02:46;5.80;;;0.93;;
42332;SDS011;27984;51.476;5.702;2023-05-16T12:05:12;5.53;;;1.10;;
42332;SDS011;27984;51.476;5.702;2023-05-16T12:07:40;3.67;;;1.00;;
42332;SDS011;27984;51.476;5.702;2023-05-16T12:10:09;5.00;;;1.00;;
42332;SDS011;27984;51.476;5.702;2023-05-16T12:12:36;4.70;;;0.90;;
42332;SDS011;27984;51.476;5.702;2023-05-16T12:15:05;6.53;;;1.10;;
42332;SDS011;27984;51.476;5.702;2023-05-16T12:17:32;3.58;;;0.95;;
42332;SDS011;27984;51.476;5.702;2023-05-16T12:20:02;4.95;;;1.00;;
42332;SDS011;27984;51.476;5.702;2023-05-16T12:22:35;4.40;;;1.00;;
42332;SDS011;27984;51.476;5.702;2023-05-16T12:27:51;4.95;;;1.20;;
42332;SDS011;27984;51.476;5.702;2023-05-16T12:30:17;4.93;;;1.13;;
42332;SDS011;27984;51.476;5.702;2023-05-16T12:32:43;3.75;;;1.10;;
42332;SDS011;27984;51.476;5.702;2023-05-16T12:35:09;4.90;;;1.10;;
42332;SDS011;27984;51.476;5.702;2023-05-16T12:37:36;3.70;;;1.00;;
42332;SDS011;27984;51.476;5.702;2023-05-16T12:40:02;5.13;;;1.35;;
42332;SDS011;27984;51.476;5.702;2023-05-16T12:42:30;4.75;;;1.08;;
42332;SDS011;27984;51.476;5.702;2023-05-16T12:44:55;4.63;;;1.13;;
42332;SDS011;27984;51.476;5.702;2023-05-16T12:47:21;3.50;;;1.00;;
42332;SDS011;27984;51.476;5.702;2023-05-16T12:49:47;4.53;;;1.13;;
42332;SDS011;27984;51.476;5.702;2023-05-16T12:52:18;4.03;;;0.98;;
42332;SDS011;27984;51.476;5.702;2023-05-16T12:54:44;5.07;;;1.35;;
42332;SDS011;27984;51.476;5.702;2023-05-16T12:57:11;6.28;;;1.60;;
42332;SDS011;27984;51.476;5.702;2023-05-16T12:59:36;6.03;;;1.27;;
42332;SDS011;27984;51.476;5.702;2023-05-16T13:02:02;5.60;;;1.23;;
42332;SDS011;27984;51.476;5.702;2023-05-16T13:04:28;6.80;;;1.30;;
42332;SDS011;27984;51.476;5.702;2023-05-16T13:06:54;5.00;;;1.23;;
42332;SDS011;27984;51.476;5.702;2023-05-16T13:09:19;5.03;;;1.23;;
42332;SDS011;27984;51.476;5.702;2023-05-16T13:11:45;5.45;;;1.17;;
42332;SDS011;27984;51.476;5.702;2023-05-16T13:14:11;6.00;;;1.00;;
42332;SDS011;27984;51.476;5.702;2023-05-16T13:16:36;7.30;;;1.40;;
42332;SDS011;27984;51.476;5.702;2023-05-16T13:19:02;4.32;;;1.33;;
42332;SDS011;27984;51.476;5.702;2023-05-16T13:21:29;4.18;;;1.30;;
42332;SDS011;27984;51.476;5.702;2023-05-16T13:23:55;7.50;;;1.20;;
42332;SDS011;27984;51.476;5.702;2023-05-16T13:26:21;6.20;;;1.25;;
42332;SDS011;27984;51.476;5.702;2023-05-16T13:28:47;5.78;;;1.60;;
42332;SDS011;27984;51.476;5.702;2023-05-16T13:31:16;3.92;;;1.58;;
42332;SDS011;27984;51.476;5.702;2023-05-16T13:33:42;5.20;;;1.15;;
42332;SDS011;27984;51.476;5.702;2023-05-16T13:36:08;6.85;;;1.30;;
42332;SDS011;27984;51.476;5.702;2023-05-16T13:38:33;7.03;;;1.35;;
42332;SDS011;27984;51.476;5.702;2023-05-16T13:41:00;3.80;;;1.17;;
42332;SDS011;27984;51.476;5.702;2023-05-16T13:43:25;6.32;;;1.42;;
42332;SDS011;27984;51.476;5.702;2023-05-16T13:45:51;4.45;;;1.00;;
42332;SDS011;27984;51.476;5.702;2023-05-16T13:48:16;8.50;;;1.55;;
42332;SDS011;27984;51.476;5.702;2023-05-16T13:50:43;3.75;;;1.00;;
42332;SDS011;27984;51.476;5.702;2023-05-16T13:53:08;3.15;;;1.30;;
42332;SDS011;27984;51.476;5.702;2023-05-16T13:55:34;4.93;;;1.10;;
42332;SDS011;27984;51.476;5.702;2023-05-16T13:58:00;7.13;;;1.20;;
42332;SDS011;27984;51.476;5.702;2023-05-16T14:00:26;9.63;;;1.60;;
42332;SDS011;27984;51.476;5.702;2023-05-16T14:02:53;3.50;;;0.80;;
42332;SDS011;27984;51.476;5.702;2023-05-16T14:05:18;5.43;;;1.40;;
42332;SDS011;27984;51.476;5.702;2023-05-16T14:07:44;6.10;;;1.58;;
42332;SDS011;27984;51.476;5.702;2023-05-16T14:10:10;5.57;;;1.30;;
42332;SDS011;27984;51.476;5.702;2023-05-16T14:12:35;6.10;;;1.10;;
42332;SDS011;27984;51.476;5.702;2023-05-16T14:15:02;3.55;;;1.20;;
42332;SDS011;27984;51.476;5.702;2023-05-16T14:17:28;5.18;;;1.20;;
42332;SDS011;27984;51.476;5.702;2023-05-16T14:19:53;9.50;;;1.27;;
42332;SDS011;27984;51.476;5.702;2023-05-16T14:22:19;7.18;;;1.52;;
42332;SDS011;27984;51.476;5.702;2023-05-16T14:24:44;5.85;;;1.30;;
42332;SDS011;27984;51.476;5.702;2023-05-16T14:27:10;5.38;;;1.30;;
42332;SDS011;27984;51.476;5.702;2023-05-16T14:29:36;10.57;;;1.35;;
42332;SDS011;27984;51.476;5.702;2023-05-16T14:32:01;7.35;;;1.40;;
42332;SDS011;27984;51.476;5.702;2023-05-16T14:34:27;6.15;;;1.35;;
42332;SDS011;27984;51.476;5.702;2023-05-16T14:36:52;9.57;;;1.60;;
42332;SDS011;27984;51.476;5.702;2023-05-16T14:39:18;5.55;;;1.55;;
42332;SDS011;27984;51.476;5.702;2023-05-16T14:41:44;5.53;;;1.52;;
42332;SDS011;27984;51.476;5.702;2023-05-16T14:44:09;3.78;;;1.13;;
42332;SDS011;27984;51.476;5.702;2023-05-16T14:46:35;7.30;;;1.15;;
42332;SDS011;27984;51.476;5.702;2023-05-16T14:49:00;7.53;;;1.80;;
42332;SDS011;27984;51.476;5.702;2023-05-16T14:51:26;9.32;;;2.00;;
42332;SDS011;27984;51.476;5.702;2023-05-16T14:53:51;7.45;;;1.65;;
42332;SDS011;27984;51.476;5.702;2023-05-16T14:56:17;6.65;;;1.45;;
42332;SDS011;27984;51.476;5.702;2023-05-16T14:58:42;4.82;;;1.20;;
42332;SDS011;27984;51.476;5.702;2023-05-16T15:01:08;5.32;;;1.50;;
42332;SDS011;27984;51.476;5.702;2023-05-16T15:03:35;11.50;;;1.90;;
42332;SDS011;27984;51.476;5.702;2023-05-16T15:06:00;6.68;;;1.33;;
42332;SDS011;27984;51.476;5.702;2023-05-16T15:08:26;7.10;;;1.45;;
42332;SDS011;27984;51.476;5.702;2023-05-16T15:10:54;5.32;;;1.40;;
42332;SDS011;27984;51.476;5.702;2023-05-16T15:13:20;5.60;;;1.60;;
42332;SDS011;27984;51.476;5.702;2023-05-16T15:15:45;7.63;;;1.13;;
42332;SDS011;27984;51.476;5.702;2023-05-16T15:18:16;5.78;;;1.50;;
42332;SDS011;27984;51.476;5.702;2023-05-16T15:20:41;4.72;;;1.40;;
42332;SDS011;27984;51.476;5.702;2023-05-16T15:23:07;5.43;;;1.52;;
42332;SDS011;27984;51.476;5.702;2023-05-16T15:25:33;6.55;;;1.73;;
42332;SDS011;27984;51.476;5.702;2023-05-16T15:27:59;6.80;;;1.52;;
42332;SDS011;27984;51.476;5.702;2023-05-16T15:30:25;7.07;;;1.63;;
42332;SDS011;27984;51.476;5.702;2023-05-16T15:32:50;8.02;;;1.50;;
42332;SDS011;27984;51.476;5.702;2023-05-16T15:35:16;7.70;;;1.40;;